This is the latest recevied weather packets stored in our database for station/object JI8TEY-15. If no packets are shown the sender has not sent any weather packets the latest 10 day(s).
| Time | Temp. | Humidity | Pressure | Rain* | Wind** | Luminosity | Snow |
|---|---|---|---|---|---|---|---|
| 1777838253 | 10.56° C | 91% | 994 hPa | 0 mm | - | - | - |
| 1777834654 | 10.56° C | 89% | 995 hPa | 0 mm | - | - | - |
| 1777831054 | 10° C | 88% | 996 hPa | 0 mm | - | - | - |
| 1777827454 | 10° C | 87% | 998 hPa | 0 mm | - | - | - |
| 1777823854 | 10.56° C | 87% | 999 hPa | 0 mm | - | - | - |
| 1777820254 | 10.56° C | 84% | 1000 hPa | 0 mm | - | - | - |
| 1777816654 | 11.11° C | 85% | 1002 hPa | 0 mm | - | - | - |
| 1777813054 | 11.67° C | 80% | 1001 hPa | 0 mm | - | - | - |
| 1777809453 | 12.22° C | 67% | 1003 hPa | 0 mm | - | - | - |
| 1777805854 | 12.22° C | 57% | 1004 hPa | 0 mm | - | - | - |
| 1777802254 | 12.22° C | 57% | 1003 hPa | 0 mm | - | - | - |
| 1777798655 | 13.89° C | 56% | 1003 hPa | 0 mm | - | - | - |
| 1777795053 | 15° C | 56% | 1004 hPa | 0 mm | - | - | - |
| 1777791455 | 15.56° C | 56% | 1004 hPa | 0 mm | - | - | - |
| 1777787854 | 17.22° C | 55% | 1004 hPa | 0 mm | - | - | - |
| 1777784254 | 17.78° C | 55% | 1004 hPa | 0 mm | - | - | - |
| 1777780654 | 18.89° C | 54% | 1004 hPa | 0 mm | - | - | - |
| 1777777054 | 17.78° C | 54% | 1005 hPa | 0 mm | - | - | - |
| 1777773454 | 17.78° C | 55% | 1006 hPa | 0 mm | - | - | - |
| 1777769855 | 16.11° C | 56% | 1006 hPa | 0 mm | - | - | - |
| 1777766255 | 15° C | 56% | 1007 hPa | 0 mm | - | - | - |
| 1777762655 | 12.78° C | 57% | 1006 hPa | 0 mm | - | - | - |
| 1777759054 | 9.44° C | 86% | 1005 hPa | 0 mm | - | - | - |
| 1777755454 | 7.22° C | 94% | 1005 hPa | 0 mm | - | - | - |
| 1777751855 | 5° C | 98% | 1004 hPa | 0 mm | - | - | - |
* Rain latest hour (hover to see other rain measurements)
** Current wind speed in m/s (hover to see current wind gust speed)